createdAt,value
2019-06-27T04:00:38.950Z,5.625
2019-06-27T04:04:06.908Z,5.625
2019-06-27T04:07:34.860Z,5.625
2019-06-27T04:11:02.822Z,5.625
2019-06-27T04:14:30.785Z,5.625
2019-06-27T04:17:58.942Z,5.625
2019-06-27T04:21:26.891Z,5.625
2019-06-27T04:24:54.861Z,5.625
2019-06-27T04:28:22.829Z,5.625
2019-06-27T04:31:50.809Z,5.625
2019-06-27T04:35:18.779Z,5.625
2019-06-27T04:38:46.743Z,5.625
2019-06-27T04:42:14.694Z,5.625
2019-06-27T04:45:42.667Z,5.625
2019-06-27T04:49:14.027Z,5.625
2019-06-27T04:52:41.567Z,11.25
2019-06-27T04:56:09.518Z,11.25
2019-06-27T04:59:52.999Z,11.25
2019-06-27T05:03:12.379Z,11.25
2019-06-27T05:06:40.352Z,11.25
2019-06-27T05:10:08.321Z,11.25
2019-06-27T05:13:36.276Z,16.875
2019-06-27T05:17:04.282Z,16.875
2019-06-27T05:20:32.289Z,16.875
2019-06-27T05:24:00.276Z,11.25
2019-06-27T05:27:29.222Z,16.875
2019-06-27T05:30:57.188Z,16.875
2019-06-27T05:34:25.141Z,16.875
2019-06-27T05:37:53.092Z,16.875
2019-06-27T05:41:21.062Z,16.875
2019-06-27T05:44:49.023Z,16.875
2019-06-27T05:48:16.968Z,16.875
2019-06-27T05:51:44.948Z,22.5
2019-06-27T05:55:12.911Z,22.5
2019-06-27T05:58:40.865Z,22.5
2019-06-27T06:02:08.840Z,22.5
2019-06-27T06:05:37.805Z,22.5
2019-06-27T06:09:05.774Z,16.875
2019-06-27T06:12:33.728Z,22.5
2019-06-27T06:16:04.653Z,16.875
2019-06-27T06:19:32.627Z,22.5
2019-06-27T06:23:00.571Z,22.5
2019-06-27T06:26:28.535Z,16.875
2019-06-27T06:29:56.481Z,22.5
2019-06-27T06:33:24.448Z,22.5
2019-06-27T06:36:52.447Z,22.5
2019-06-27T06:40:20.367Z,22.5
2019-06-27T06:43:48.330Z,28.125
2019-06-27T06:47:16.290Z,28.125
2019-06-27T06:50:44.263Z,28.125
2019-06-27T06:54:12.204Z,28.125
2019-06-27T06:57:40.193Z,22.5
2019-06-27T07:01:08.125Z,33.75
2019-06-27T07:04:36.076Z,33.75
2019-06-27T07:08:04.054Z,33.75
2019-06-27T07:11:32.018Z,39.375
2019-06-27T07:15:00.968Z,39.375
2019-06-27T07:18:28.922Z,39.375
2019-06-27T07:21:56.893Z,28.125
2019-06-27T07:25:24.866Z,22.5
2019-06-27T07:28:52.823Z,33.75
2019-06-27T07:32:20.786Z,33.75
2019-06-27T07:35:48.725Z,39.375
2019-06-27T07:39:16.693Z,45
2019-06-27T07:42:44.655Z,28.125
2019-06-27T07:46:24.898Z,39.375
2019-06-27T07:49:47.499Z,45
2019-06-27T07:53:15.464Z,45
2019-06-27T07:56:46.281Z,28.125
2019-06-27T08:00:13.361Z,33.75
2019-06-27T08:03:41.327Z,33.75
2019-06-27T08:07:09.315Z,33.75
2019-06-27T08:10:37.259Z,39.375
2019-06-27T08:14:05.204Z,16.875
2019-06-27T08:17:33.168Z,33.75
2019-06-27T08:21:02.179Z,28.125
2019-06-27T08:24:34.188Z,28.125
2019-06-27T08:28:01.015Z,33.75
2019-06-27T08:31:28.977Z,39.375
2019-06-27T08:34:56.925Z,39.375
2019-06-27T08:38:24.880Z,45
2019-06-27T08:41:52.942Z,45
2019-06-27T08:45:20.884Z,39.375
2019-06-27T08:48:48.852Z,45
2019-06-27T08:52:16.828Z,67.5
2019-06-27T08:55:44.773Z,45
2019-06-27T08:59:12.733Z,39.375
2019-06-27T09:02:40.790Z,56.25
2019-06-27T09:06:08.645Z,56.25
2019-06-27T09:09:36.609Z,45
2019-06-27T09:13:04.569Z,45
2019-06-27T09:16:32.524Z,50.625
2019-06-27T09:20:00.489Z,45
2019-06-27T09:23:28.446Z,39.375
2019-06-27T09:26:56.402Z,61.875
2019-06-27T09:30:24.355Z,50.625
2019-06-27T09:33:52.332Z,45
2019-06-27T09:37:20.292Z,73.125
2019-06-27T09:40:48.239Z,56.25
2019-06-27T09:44:16.205Z,45
2019-06-27T09:47:44.167Z,45
2019-06-27T09:51:12.119Z,45
2019-06-27T09:54:40.075Z,56.25
2019-06-27T09:58:08.040Z,39.375
2019-06-27T10:01:36.001Z,50.625
2019-06-27T10:05:03.947Z,50.625
2019-06-27T10:08:31.907Z,50.625
2019-06-27T10:11:59.873Z,56.25
2019-06-27T10:15:27.847Z,56.25
2019-06-27T10:18:56.801Z,56.25
2019-06-27T10:22:24.780Z,50.625
2019-06-27T10:25:52.747Z,45
2019-06-27T10:29:20.746Z,56.25
2019-06-27T10:32:58.767Z,61.875
2019-06-27T10:36:23.581Z,95.625
2019-06-27T10:39:51.648Z,73.125
2019-06-27T10:43:19.599Z,56.25
2019-06-27T10:46:47.549Z,61.875
2019-06-27T10:50:15.514Z,50.625
2019-06-27T10:53:43.452Z,56.25
2019-06-27T10:57:11.452Z,67.5
2019-06-27T11:00:39.385Z,56.25
2019-06-27T11:04:07.326Z,61.875
2019-06-27T11:07:35.280Z,56.25
2019-06-27T11:11:04.239Z,50.625
2019-06-27T11:14:32.186Z,56.25
2019-06-27T11:18:00.147Z,73.125
2019-06-27T11:21:28.112Z,106.875
2019-06-27T11:24:56.059Z,56.25
2019-06-27T11:28:24.046Z,50.625
2019-06-27T11:31:51.999Z,61.875
2019-06-27T11:35:21.055Z,95.625
2019-06-27T11:38:48.933Z,73.125
2019-06-27T11:42:16.919Z,135
2019-06-27T11:45:45.872Z,61.875
2019-06-27T11:49:13.813Z,67.5
2019-06-27T11:52:41.774Z,45
2019-06-27T11:56:10.731Z,56.25
2019-06-27T11:59:38.681Z,56.25
2019-06-27T12:03:06.644Z,56.25
2019-06-27T12:06:34.609Z,61.875
2019-06-27T12:10:02.577Z,50.625
2019-06-27T12:13:30.542Z,61.875
2019-06-27T12:16:58.512Z,73.125
2019-06-27T12:20:26.495Z,56.25
2019-06-27T12:23:54.456Z,45
2019-06-27T12:27:22.429Z,56.25
2019-06-27T12:30:51.384Z,56.25
2019-06-27T12:34:19.350Z,84.375
2019-06-27T12:37:47.314Z,106.875
2019-06-27T12:41:15.277Z,45
2019-06-27T12:44:43.228Z,90
2019-06-27T12:48:12.171Z,50.625
2019-06-27T12:51:40.142Z,101.25
2019-06-27T12:55:08.098Z,73.125
2019-06-27T12:58:36.051Z,174.375
2019-06-27T13:02:04.015Z,185.625
2019-06-27T13:05:31.995Z,73.125
2019-06-27T13:09:00.944Z,78.75
2019-06-27T13:12:28.901Z,219.375
2019-06-27T13:15:56.876Z,73.125
2019-06-27T13:19:24.834Z,67.5
2019-06-27T13:22:52.782Z,180
2019-06-27T13:26:20.753Z,56.25
2019-06-27T13:29:48.707Z,50.625
2019-06-27T13:33:16.688Z,112.5
2019-06-27T13:36:44.609Z,73.125
2019-06-27T13:40:12.577Z,50.625
2019-06-27T13:43:40.537Z,56.25
2019-06-27T13:47:08.515Z,90
2019-06-27T13:50:37.466Z,39.375
2019-06-27T13:54:05.413Z,174.375
2019-06-27T13:57:33.383Z,50.625
2019-06-27T14:01:01.366Z,73.125
2019-06-27T14:04:29.314Z,56.25
2019-06-27T14:07:57.281Z,45
2019-06-27T14:11:25.242Z,236.25
2019-06-27T14:14:59.952Z,56.25
2019-06-27T14:18:27.101Z,95.625
2019-06-27T14:21:58.600Z,45
2019-06-27T14:25:24.994Z,50.625
2019-06-27T14:28:52.955Z,45
2019-06-27T14:32:20.942Z,157.5
2019-06-27T14:35:48.903Z,61.875
2019-06-27T14:39:16.854Z,118.125
2019-06-27T14:42:44.825Z,112.5
2019-06-27T14:46:12.792Z,90
2019-06-27T14:49:40.736Z,33.75
2019-06-27T14:53:08.698Z,45
2019-06-27T14:56:36.665Z,61.875
2019-06-27T15:00:04.721Z,45
2019-06-27T15:03:34.576Z,388.125
2019-06-27T15:07:02.565Z,56.25
2019-06-27T15:10:30.650Z,185.625
2019-06-27T15:13:58.476Z,45
2019-06-27T15:17:26.443Z,45
2019-06-27T15:20:54.416Z,50.625
2019-06-27T15:24:22.363Z,118.125
2019-06-27T15:27:50.336Z,56.25
2019-06-27T15:31:21.343Z,50.625
2019-06-27T15:34:48.255Z,112.5
2019-06-27T15:38:16.256Z,84.375
2019-06-27T15:41:44.242Z,67.5
2019-06-27T15:45:12.212Z,78.75
2019-06-27T15:48:40.156Z,33.75
2019-06-27T15:52:08.137Z,45
2019-06-27T15:55:36.171Z,61.875
2019-06-27T15:59:06.143Z,61.875
2019-06-27T16:02:34.139Z,61.875
2019-06-27T16:06:09.636Z,354.375
2019-06-27T16:09:36.960Z,315
2019-06-27T16:13:05.896Z,56.25
2019-06-27T16:16:33.875Z,168.75
2019-06-27T16:20:01.837Z,50.625
2019-06-27T16:23:29.793Z,61.875
2019-06-27T16:26:57.748Z,45
2019-06-27T16:30:25.711Z,39.375
2019-06-27T16:33:53.668Z,28.125
2019-06-27T16:37:21.617Z,28.125
2019-06-27T16:40:49.589Z,73.125
2019-06-27T16:44:17.552Z,39.375
2019-06-27T16:47:45.507Z,45
2019-06-27T16:51:14.483Z,33.75
2019-06-27T16:54:42.441Z,33.75
2019-06-27T16:58:10.409Z,39.375
2019-06-27T17:01:38.377Z,61.875
2019-06-27T17:05:06.357Z,45
2019-06-27T17:08:37.414Z,33.75
2019-06-27T17:12:06.942Z,39.375
2019-06-27T17:15:35.455Z,39.375
2019-06-27T17:19:04.912Z,33.75
2019-06-27T17:22:34.240Z,28.125
2019-06-27T17:26:02.745Z,39.375
2019-06-27T17:29:32.036Z,421.875
2019-06-27T17:33:01.808Z,590.625
2019-06-27T17:36:30.958Z,613.125
2019-06-27T17:39:59.523Z,534.375
2019-06-27T17:43:28.089Z,720
2019-06-27T17:46:57.087Z,478.125
2019-06-27T17:50:26.048Z,73.125
2019-06-27T17:53:54.007Z,61.875
2019-06-27T17:57:21.973Z,275.625
2019-06-27T18:00:49.974Z,247.5
2019-06-27T18:04:17.943Z,292.5
2019-06-27T18:07:45.916Z,225
2019-06-27T18:11:13.931Z,118.125
2019-06-27T18:14:42.890Z,112.5
2019-06-27T18:18:10.907Z,78.75
2019-06-27T18:21:38.896Z,50.625
2019-06-27T18:25:06.853Z,39.375
2019-06-27T18:28:34.863Z,28.125
2019-06-27T18:32:02.830Z,22.5
2019-06-27T18:35:30.844Z,22.5
2019-06-27T18:38:58.860Z,16.875
2019-06-27T18:42:26.808Z,16.875
2019-06-27T18:45:54.812Z,11.25
2019-06-27T18:49:22.812Z,11.25
2019-06-27T18:52:50.781Z,11.25
2019-06-27T18:56:18.792Z,11.25
2019-06-27T18:59:46.877Z,5.625
2019-06-27T19:03:14.876Z,5.625
2019-06-27T19:06:42.839Z,5.625
2019-06-27T19:10:10.851Z,5.625
2019-06-27T19:13:39.809Z,5.625
2019-06-27T19:17:08.824Z,5.625
2019-06-27T19:20:36.832Z,0
2019-06-27T19:24:05.770Z,0
2019-06-27T19:27:34.659Z,0
2019-06-27T19:31:03.609Z,0
2019-06-27T19:34:31.755Z,0
2019-06-27T19:38:04.026Z,0
2019-06-27T19:41:32.122Z,0
2019-06-27T19:45:00.866Z,0
2019-06-27T19:48:28.887Z,0
2019-06-27T19:51:56.919Z,0
2019-06-27T19:55:24.892Z,0
2019-06-27T19:58:52.930Z,0
2019-06-27T20:02:20.895Z,0
2019-06-27T20:05:48.964Z,0
2019-06-27T20:09:18.005Z,0
2019-06-27T20:12:45.962Z,0
2019-06-27T20:16:13.956Z,0
2019-06-27T20:19:41.922Z,0
2019-06-27T20:23:09.895Z,0
2019-06-27T20:26:37.893Z,0
2019-06-27T20:30:05.896Z,0
2019-06-27T20:33:34.168Z,0
2019-06-27T20:37:02.478Z,0
2019-06-27T20:40:31.555Z,0
2019-06-27T20:43:59.661Z,0
2019-06-27T20:47:27.730Z,0
2019-06-27T20:50:55.792Z,0
2019-06-27T20:54:23.758Z,0
2019-06-27T20:57:51.897Z,0
2019-06-27T21:01:19.851Z,0
2019-06-27T21:04:47.840Z,0
2019-06-27T21:08:15.796Z,0
2019-06-27T21:11:43.753Z,0
2019-06-27T21:15:11.706Z,0
2019-06-27T21:18:39.768Z,0
2019-06-27T21:22:07.721Z,0
2019-06-27T21:25:35.682Z,0
2019-06-27T21:29:03.679Z,0
2019-06-27T21:32:33.579Z,0
2019-06-27T21:36:01.539Z,0
2019-06-27T21:39:29.504Z,0
2019-06-27T21:42:57.469Z,0
2019-06-27T21:46:25.414Z,0
2019-06-27T21:49:53.372Z,0
2019-06-27T21:53:21.339Z,0
2019-06-27T21:56:49.283Z,0
